CheckWX is a tool to help pilots better visualize weather data.  It is not intended as a substitute for an official pre-flight weather briefing.

20:31:22 UTC

KJMS TAF
Jamestown Regional Airport
Jamestown, North Dakota, USA
KJMS 221731Z 2218/2318 15006KT P6SM SKC FM230400 16007KT P6SM VCFG FEW014 FM230600 17007KT 2SM BR BKN015 FM231000 18007KT 6SM BR FEW015 SCT300 FM231300 18008KT P6SM FEW025 BKN250

Mar-22@
18:00 UTC

Mar-22 @ 18:00 UTC

Mar-23@
04:00 UTC

Mar-23 @ 04:00 UTC

KJMS 221731Z 2218/2318 15006KT P6SM SKC
Wind
  • 150° at 6 KTS
Cloud Levels
  • Clear skies

Mar-23@
04:00 UTC

Mar-23 @ 04:00 UTC

Mar-23@
06:00 UTC

Mar-23 @ 06:00 UTC

FM230400 16007KT P6SM VCFG FEW014

From

From Standard forecast or significant change

Wind
  • 160° at 7 KTS
Conditions
Area Fog
Cloud Levels
  • Few at 1,400' AGL

Mar-23@
06:00 UTC

Mar-23 @ 06:00 UTC

Mar-23@
10:00 UTC

Mar-23 @ 10:00 UTC

FM230600 17007KT 2SM BR BKN015

From

From Standard forecast or significant change

Wind
  • 170° at 7 KTS
Conditions
Mist
Cloud Levels
  • Broken at 1,500' AGL

Mar-23@
10:00 UTC

Mar-23 @ 10:00 UTC

Mar-23@
13:00 UTC

Mar-23 @ 13:00 UTC

FM231000 18007KT 6SM BR FEW015 SCT300

From

From Standard forecast or significant change

Wind
  • 180° at 7 KTS
Conditions
Mist
Cloud Levels
  • Few at 1,500' AGL
  • Scattered at 30,000' AGL

Mar-23@
13:00 UTC

Mar-23 @ 13:00 UTC

Mar-23@
18:00 UTC

Mar-23 @ 18:00 UTC

FM231300 18008KT P6SM FEW025 BKN250

From

From Standard forecast or significant change

Wind
  • 180° at 8 KTS
Cloud Levels
  • Few at 2,500' AGL
  • Broken at 25,000' AGL